Time;durP1;ratioP1;P1;durP2;ratioP2;P2;SDS_P1;SDS_P2;PMS_P1;PMS_P2;Temp;Humidity;BMP_temperature;BMP_pressure;BME280_temperature;BME280_humidity;BME280_pressure;Samples;Min_cycle;Max_cycle;Signal;HPM_P1;HPM_P2
2021/04/09 00:01:12;;;;;;;4.45;2.53;;;;;;;3.04;44.89;95558.56;2987482;39;20066;-84
2021/04/09 00:03:13;;;;;;;4.70;2.67;;;;;;;3.04;44.99;95556.81;2987359;39;20346;-85
2021/04/09 00:05:17;;;;;;;4.65;2.85;;;;;;;3.03;45.08;95559.47;2987683;39;20048;-84
2021/04/09 00:07:18;;;;;;;9.05;3.00;;;;;;;3.02;45.15;95563.84;2986996;39;20051;-85
2021/04/09 00:09:20;;;;;;;6.28;2.92;;;;;;;3.01;45.19;95558.75;2987241;39;20103;-85
2021/04/09 00:11:21;;;;;;;6.10;3.10;;;;;;;3.04;45.30;95567.16;2978057;40;20060;-84
2021/04/09 00:13:22;;;;;;;5.50;3.03;;;;;;;3.03;45.46;95556.88;2988431;39;20095;-84
2021/04/09 00:15:24;;;;;;;5.70;3.60;;;;;;;3.08;45.48;95560.06;2995991;39;20067;-84
2021/04/09 00:17:25;;;;;;;10.43;3.38;;;;;;;3.10;45.88;95562.53;2982555;39;20432;-82
2021/04/09 00:19:27;;;;;;;8.75;3.38;;;;;;;3.10;45.86;95570.28;2983281;39;20089;-83
2021/04/09 00:21:28;;;;;;;5.82;3.83;;;;;;;3.09;45.48;95559.13;2994683;39;20059;-82
2021/04/09 00:23:29;;;;;;;5.63;3.30;;;;;;;3.06;45.91;95562.72;2989765;39;20060;-84
2021/04/09 00:25:30;;;;;;;6.63;3.45;;;;;;;3.04;45.68;95567.16;2977833;40;20548;-82
2021/04/09 00:27:34;;;;;;;7.13;3.70;;;;;;;3.02;45.78;95561.25;2987085;39;20405;-85
2021/04/09 00:29:36;;;;;;;6.30;3.53;;;;;;;3.05;45.88;95568.00;2987073;39;20055;-84
2021/04/09 00:31:37;;;;;;;6.40;3.55;;;;;;;3.06;45.87;95557.56;2986736;39;20056;-84
2021/04/09 00:33:38;;;;;;;6.00;3.90;;;;;;;3.05;45.88;95555.91;2986936;39;20055;-84
2021/04/09 00:35:40;;;;;;;5.60;3.50;;;;;;;2.98;45.79;95548.59;2977481;39;20036;-84
2021/04/09 00:37:41;;;;;;;7.00;3.88;;;;;;;2.96;46.02;95555.59;2971740;39;20072;-85
2021/04/09 00:39:42;;;;;;;8.98;3.47;;;;;;;2.87;46.27;95544.03;2982390;39;20028;-85
2021/04/09 00:41:44;;;;;;;5.80;3.35;;;;;;;2.82;46.01;95546.09;2983572;39;20127;-84
2021/04/09 00:43:45;;;;;;;4.97;3.00;;;;;;;2.76;46.28;95549.84;2988983;39;20063;-83
2021/04/09 00:45:47;;;;;;;5.18;3.17;;;;;;;2.76;46.12;95543.84;2992549;39;20075;-83
2021/04/09 00:47:48;;;;;;;5.80;3.10;;;;;;;2.78;45.93;95542.84;2986880;39;20425;-84
2021/04/09 00:49:50;;;;;;;4.72;3.08;;;;;;;2.79;46.04;95549.66;2982352;39;20044;-83
2021/04/09 00:51:52;;;;;;;4.45;2.75;;;;;;;2.77;46.07;95554.09;2980558;39;20029;-85
2021/04/09 00:53:53;;;;;;;8.55;3.03;;;;;;;2.75;46.17;95553.34;2988469;39;20070;-83
2021/04/09 00:55:55;;;;;;;6.05;2.97;;;;;;;2.77;46.02;95556.69;2987062;39;20079;-82
2021/04/09 00:57:58;;;;;;;5.18;2.88;;;;;;;2.70;46.52;95552.81;2987897;39;20428;-82
2021/04/09 01:00:02;;;;;;;9.88;3.33;;;;;;;2.61;46.88;95549.00;2986425;39;20379;-84
2021/04/09 01:02:03;;;;;;;5.22;3.63;;;;;;;2.54;46.80;95555.47;2998341;39;20073;-84
2021/04/09 01:04:04;;;;;;;4.65;3.08;;;;;;;2.54;46.72;95552.88;2986124;39;20099;-83
2021/04/09 01:06:06;;;;;;;6.03;3.22;;;;;;;2.63;46.79;95551.50;2989266;39;20065;-83
2021/04/09 01:08:08;;;;;;;8.25;3.03;;;;;;;2.62;46.76;95552.41;2978737;39;20047;-83
2021/04/09 01:10:14;;;;;;;5.72;3.15;;;;;;;2.59;46.67;95547.44;2988548;39;20067;-83
2021/04/09 01:12:15;;;;;;;5.88;3.00;;;;;;;2.64;46.75;95553.97;2988328;39;20408;-83
2021/04/09 01:14:16;;;;;;;5.93;3.40;;;;;;;2.62;46.42;95549.81;2978945;40;20040;-84
2021/04/09 01:16:28;;;;;;;5.35;3.50;;;;;;;2.60;46.92;95557.69;2987765;39;20087;-85
2021/04/09 01:18:38;;;;;;;4.75;2.97;;;;;;;2.54;46.94;95562.38;2978860;39;20060;-85
2021/04/09 01:21:06;;;;;;;6.20;3.00;;;;;;;2.53;46.87;95561.53;2979038;40;20055;-82
2021/04/09 01:23:17;;;;;;;5.65;2.95;;;;;;;2.50;46.79;95558.31;2985380;39;20040;-83
2021/04/09 01:25:40;;;;;;;5.25;3.38;;;;;;;2.51;47.05;95560.78;2991869;39;20047;-83
2021/04/09 01:27:56;;;;;;;5.45;3.10;;;;;;;2.50;46.84;95558.31;2990259;39;20043;-84
2021/04/09 01:30:38;;;;;;;4.80;2.88;;;;;;;2.34;46.83;95554.00;2987526;39;20048;-84
2021/04/09 01:32:39;;;;;;;5.82;3.38;;;;;;;2.28;47.53;95554.38;2979980;39;20046;-86
2021/04/09 01:34:46;;;;;;;5.53;3.50;;;;;;;2.33;46.87;95549.78;2982715;39;20036;-84
2021/04/09 01:36:52;;;;;;;5.15;3.00;;;;;;;2.34;46.93;95554.00;2981566;39;20515;-84
2021/04/09 01:39:01;;;;;;;6.85;3.30;;;;;;;2.40;47.09;95558.00;2981868;39;20083;-84
2021/04/09 01:41:04;;;;;;;6.65;3.28;;;;;;;2.41;46.95;95555.34;2985280;39;20387;-72
2021/04/09 01:43:07;;;;;;;7.97;3.08;;;;;;;2.36;47.31;95552.16;2983266;39;20439;-70
2021/04/09 01:45:12;;;;;;;3.90;2.80;;;;;;;2.41;47.22;95557.94;2983562;39;20052;-71
2021/04/09 01:47:14;;;;;;;4.60;2.72;;;;;;;2.40;47.19;95550.25;2984385;39;20059;-70
2021/04/09 01:49:16;;;;;;;5.18;2.90;;;;;;;2.30;47.21;95551.69;2979451;39;20051;-71
2021/04/09 01:51:19;;;;;;;5.53;3.00;;;;;;;2.18;47.33;95553.22;2975693;39;20091;-71
2021/04/09 01:53:23;;;;;;;4.70;3.00;;;;;;;2.23;47.45;95551.22;2967113;39;20122;-71
2021/04/09 01:55:25;;;;;;;6.25;2.78;;;;;;;2.25;46.94;95554.53;2978623;39;20055;-84
2021/04/09 01:57:27;;;;;;;4.32;2.90;;;;;;;2.20;47.06;95554.81;2982211;39;20057;-71
2021/04/09 01:59:31;;;;;;;6.97;2.95;;;;;;;2.18;47.16;95559.22;2975174;39;20060;-72
2021/04/09 02:01:32;;;;;;;5.30;2.97;;;;;;;2.24;46.85;95564.06;2983676;39;20408;-71
2021/04/09 02:03:34;;;;;;;4.85;3.05;;;;;;;2.25;46.94;95560.53;2974409;39;20308;-72
2021/04/09 02:05:36;;;;;;;5.18;3.03;;;;;;;2.30;47.03;95560.28;2975032;39;20084;-71
2021/04/09 02:07:38;;;;;;;5.80;3.20;;;;;;;2.25;46.84;95557.94;2975081;40;20098;-72
2021/04/09 02:09:39;;;;;;;5.88;2.92;;;;;;;2.34;46.72;95559.19;2978030;39;20096;-71
2021/04/09 02:11:42;;;;;;;11.57;3.30;;;;;;;2.27;46.48;95552.69;2967822;39;20121;-74
2021/04/09 02:13:43;;;;;;;7.05;3.60;;;;;;;2.22;47.05;95559.91;2975541;39;20687;-70
2021/04/09 02:15:45;;;;;;;6.15;3.35;;;;;;;2.15;47.30;95558.56;2980079;39;20160;-71
2021/04/09 02:17:46;;;;;;;4.72;3.35;;;;;;;2.13;46.79;95571.59;2976873;39;20158;-71
2021/04/09 02:19:47;;;;;;;6.60;3.60;;;;;;;2.18;47.21;95566.16;2991324;39;20051;-72
2021/04/09 02:21:49;;;;;;;6.90;3.20;;;;;;;2.21;46.79;95569.38;2972184;40;20067;-71
2021/04/09 02:23:51;;;;;;;4.63;3.15;;;;;;;2.20;46.92;95572.06;2971692;39;20063;-70
2021/04/09 02:25:57;;;;;;;6.53;4.05;;;;;;;2.24;46.66;95571.81;2958052;40;20055;-71
2021/04/09 02:27:58;;;;;;;4.30;3.05;;;;;;;2.27;47.09;95573.38;2988318;39;20073;-69
2021/04/09 02:30:00;;;;;;;5.93;3.67;;;;;;;2.28;46.60;95577.66;2975906;39;20142;-72
2021/04/09 02:32:01;;;;;;;6.57;3.42;;;;;;;2.29;46.83;95584.47;2983378;39;20044;-84
2021/04/09 02:34:03;;;;;;;5.72;3.42;;;;;;;2.02;48.14;95589.44;2984908;39;20055;-86
2021/04/09 02:36:16;;;;;;;8.13;4.25;;;;;;;1.58;49.26;95596.13;2987216;39;20050;-83
2021/04/09 02:38:18;;;;;;;7.38;4.07;;;;;;;1.22;50.22;95591.16;2986141;39;20359;-85
2021/04/09 02:40:27;;;;;;;7.40;3.85;;;;;;;1.21;51.29;95586.94;2969593;40;20051;-83
2021/04/09 02:42:29;;;;;;;9.27;4.20;;;;;;;1.31;50.62;95589.84;2979129;39;20072;-84
2021/04/09 02:44:30;;;;;;;9.02;4.07;;;;;;;1.43;49.93;95590.03;2978122;40;20169;-85
2021/04/09 02:46:38;;;;;;;8.30;4.10;;;;;;;1.59;49.85;95590.06;2987971;39;20316;-84
2021/04/09 02:48:50;;;;;;;9.93;4.47;;;;;;;1.75;49.49;95591.81;2982155;39;20035;-85
2021/04/09 02:50:52;;;;;;;8.20;4.47;;;;;;;1.85;49.51;95580.06;2986633;39;20047;-84
2021/04/09 02:52:56;;;;;;;8.05;4.30;;;;;;;1.94;49.02;95581.28;2969982;39;20032;-84
2021/04/09 02:55:01;;;;;;;10.40;4.78;;;;;;;2.01;49.03;95575.69;2983142;39;20333;-83
2021/04/09 02:57:04;;;;;;;10.15;4.07;;;;;;;2.08;48.86;95575.34;2980389;39;20038;-83
2021/04/09 02:59:08;;;;;;;10.10;5.28;;;;;;;2.17;48.40;95574.81;2978653;39;20124;-84
2021/04/09 03:01:09;;;;;;;11.27;5.15;;;;;;;2.20;48.37;95583.25;2971070;40;20064;-85
2021/04/09 03:03:11;;;;;;;9.38;4.72;;;;;;;2.30;48.36;95588.72;2979240;39;20047;-84
2021/04/09 03:05:14;;;;;;;9.32;5.13;;;;;;;2.32;48.32;95584.28;2980037;39;20247;-82
2021/04/09 03:07:18;;;;;;;9.80;4.97;;;;;;;2.32;48.33;95586.88;2979373;39;20039;-84
2021/04/09 03:09:20;;;;;;;8.50;4.90;;;;;;;2.33;48.52;95583.38;2984097;39;20360;-84
2021/04/09 03:11:22;;;;;;;11.38;4.75;;;;;;;2.35;48.59;95576.38;2970135;40;20348;-83
2021/04/09 03:13:23;;;;;;;9.95;5.50;;;;;;;2.38;48.13;95576.19;2969384;39;20052;-82
2021/04/09 03:15:27;;;;;;;12.00;5.57;;;;;;;2.26;48.93;95582.06;2978716;39;20040;-83
2021/04/09 03:17:37;;;;;;;11.75;5.47;;;;;;;2.18;49.02;95581.66;2979693;39;20108;-83
2021/04/09 03:19:38;;;;;;;11.85;5.20;;;;;;;2.14;49.45;95591.34;2979989;39;20072;-84
2021/04/09 03:21:40;;;;;;;10.73;4.93;;;;;;;2.20;49.18;95592.75;2995727;39;20108;-83
2021/04/09 03:23:41;;;;;;;8.65;4.50;;;;;;;2.15;48.82;95589.59;2981306;39;20112;-84
2021/04/09 03:25:42;;;;;;;16.60;5.80;;;;;;;2.05;50.03;95595.28;2983950;39;20346;-83
2021/04/09 03:27:44;;;;;;;10.57;4.88;;;;;;;1.99;49.79;95589.63;2999621;39;20058;-84
2021/04/09 03:29:45;;;;;;;10.38;4.82;;;;;;;2.03;49.82;95596.28;2987895;39;20032;-83
2021/04/09 03:31:46;;;;;;;8.60;4.07;;;;;;;2.05;49.93;95594.44;2988331;39;20091;-86
2021/04/09 03:33:47;;;;;;;6.93;4.40;;;;;;;1.97;50.10;95597.44;2978070;39;20136;-86
2021/04/09 03:35:49;;;;;;;10.82;4.30;;;;;;;1.99;50.11;95597.38;2979548;39;20407;-84
2021/04/09 03:37:50;;;;;;;7.45;4.50;;;;;;;2.01;49.61;95605.88;2975745;39;20132;-85
2021/04/09 03:39:52;;;;;;;6.57;4.65;;;;;;;1.97;49.55;95599.19;2987126;39;20024;-85
2021/04/09 03:41:53;;;;;;;6.60;4.75;;;;;;;1.97;49.75;95601.78;2987174;39;20044;-85
2021/04/09 03:43:54;;;;;;;7.38;4.45;;;;;;;1.98;49.86;95612.06;2990765;39;20063;-84
2021/04/09 03:45:56;;;;;;;6.53;4.13;;;;;;;2.04;49.70;95609.13;2986498;39;20043;-85
2021/04/09 03:47:58;;;;;;;6.25;4.30;;;;;;;2.07;49.51;95609.88;2973608;39;20438;-85
2021/04/09 03:50:00;;;;;;;7.95;4.63;;;;;;;2.10;49.30;95618.28;2984127;39;20416;-85
2021/04/09 03:52:02;;;;;;;6.40;4.18;;;;;;;2.14;49.49;95621.53;2972420;39;20085;-72
2021/04/09 03:54:03;;;;;;;7.25;4.50;;;;;;;2.14;49.14;95621.53;2977266;39;20117;-70
2021/04/09 03:56:05;;;;;;;8.32;4.63;;;;;;;2.18;49.07;95623.03;2984512;39;20443;-72
2021/04/09 03:58:07;;;;;;;9.02;4.40;;;;;;;2.24;49.06;95625.28;2980718;39;20077;-70
2021/04/09 04:00:09;;;;;;;7.35;4.32;;;;;;;2.27;48.92;95627.69;2984263;39;20391;-70
2021/04/09 04:02:10;;;;;;;8.57;3.97;;;;;;;2.33;48.98;95626.53;2978700;39;20084;-73
2021/04/09 04:04:12;;;;;;;8.13;4.55;;;;;;;2.35;48.75;95635.84;2984400;39;20055;-71
2021/04/09 04:06:13;;;;;;;10.35;4.93;;;;;;;2.41;48.67;95634.66;2973814;39;20087;-71
2021/04/09 04:08:15;;;;;;;10.32;5.05;;;;;;;2.48;48.55;95637.75;2987140;39;20047;-71
2021/04/09 04:10:17;;;;;;;8.40;4.57;;;;;;;2.45;48.53;95637.00;2979914;39;20060;-71
2021/04/09 04:12:19;;;;;;;7.38;4.80;;;;;;;2.50;48.76;95644.50;2979655;39;20488;-71
2021/04/09 04:14:20;;;;;;;6.95;4.32;;;;;;;2.56;48.59;95640.72;2983851;39;20050;-71
2021/04/09 04:16:22;;;;;;;7.75;4.85;;;;;;;2.59;48.59;95643.16;2990615;39;20133;-72
2021/04/09 04:18:25;;;;;;;9.52;5.28;;;;;;;2.57;48.50;95658.75;2991777;39;20131;-72
2021/04/09 04:20:26;;;;;;;8.95;5.03;;;;;;;2.58;48.93;95646.63;2986926;39;20051;-70
2021/04/09 04:22:27;;;;;;;7.63;4.88;;;;;;;2.60;48.67;95648.25;2967240;40;20472;-71
2021/04/09 04:24:28;;;;;;;9.70;5.55;;;;;;;2.63;48.82;95652.41;2989935;39;20131;-72
2021/04/09 04:26:30;;;;;;;7.05;4.85;;;;;;;2.71;48.43;95657.97;2969676;39;20077;-70
2021/04/09 04:28:31;;;;;;;12.32;5.47;;;;;;;2.71;48.79;95654.53;2968711;39;20149;-71
2021/04/09 04:30:33;;;;;;;11.65;5.00;;;;;;;2.61;48.76;95652.47;2982187;39;20051;-71
2021/04/09 04:32:34;;;;;;;8.50;4.72;;;;;;;2.60;48.92;95656.00;2980108;39;20573;-71
2021/04/09 04:34:36;;;;;;;7.85;5.22;;;;;;;2.64;49.15;95656.63;2984100;39;20047;-71
2021/04/09 04:36:37;;;;;;;10.57;4.55;;;;;;;2.63;49.10;95655.81;2985284;39;20051;-70
2021/04/09 04:38:38;;;;;;;8.90;4.47;;;;;;;2.71;49.13;95657.13;2984318;39;20294;-73
2021/04/09 04:40:40;;;;;;;6.90;4.38;;;;;;;2.74;49.42;95667.31;2986153;39;20047;-71
2021/04/09 04:42:41;;;;;;;9.23;4.60;;;;;;;2.78;49.32;95661.88;2986416;39;20083;-72
2021/04/09 04:44:42;;;;;;;5.35;4.07;;;;;;;2.81;49.08;95669.44;2975497;39;20051;-72
2021/04/09 04:46:44;;;;;;;9.68;4.70;;;;;;;2.80;49.09;95659.19;2990268;39;20321;-72
2021/04/09 04:48:45;;;;;;;11.70;4.60;;;;;;;2.92;49.39;95673.19;2984825;39;20092;-72
2021/04/09 04:50:46;;;;;;;23.60;10.23;;;;;;;3.00;48.75;95673.56;2987790;39;20422;-71
2021/04/09 04:52:47;;;;;;;8.15;5.43;;;;;;;3.06;48.99;95676.63;2981942;39;20047;-73
2021/04/09 04:54:49;;;;;;;12.02;5.78;;;;;;;3.12;48.95;95683.22;2988438;39;20056;-72
2021/04/09 04:56:50;;;;;;;11.43;6.75;;;;;;;3.09;48.84;95678.22;2984164;39;20059;-70
2021/04/09 04:58:52;;;;;;;14.75;6.75;;;;;;;3.03;48.85;95681.16;2988975;39;20099;-83
2021/04/09 05:00:54;;;;;;;18.38;8.77;;;;;;;3.04;49.12;95693.19;2989569;39;20051;-83
2021/04/09 05:02:55;;;;;;;12.18;5.90;;;;;;;3.04;48.67;95691.41;2983409;39;20055;-84
2021/04/09 05:04:57;;;;;;;9.85;4.80;;;;;;;3.02;48.99;95693.25;2992424;39;20042;-85
2021/04/09 05:06:58;;;;;;;9.70;5.50;;;;;;;3.07;48.81;95687.81;2999166;39;20085;-85
2021/04/09 05:08:59;;;;;;;6.55;4.55;;;;;;;3.00;48.98;95697.69;3002753;39;20044;-85
2021/04/09 05:11:01;;;;;;;12.20;5.18;;;;;;;3.14;48.88;95703.81;2996779;39;20031;-84
2021/04/09 05:13:02;;;;;;;11.60;5.03;;;;;;;3.26;48.85;95700.53;2980164;40;20044;-84
2021/04/09 05:15:04;;;;;;;8.43;4.50;;;;;;;3.24;48.91;95705.78;2995443;39;20024;-83
2021/04/09 05:17:06;;;;;;;9.10;4.95;;;;;;;3.35;48.22;95702.56;2982926;40;20055;-84
2021/04/09 05:19:07;;;;;;;8.77;4.72;;;;;;;3.35;48.25;95702.56;2988667;39;20068;-86
2021/04/09 05:21:09;;;;;;;8.00;4.07;;;;;;;3.37;48.40;95707.66;2997710;39;20084;-86
2021/04/09 05:23:11;;;;;;;10.82;4.88;;;;;;;3.53;48.00;95711.03;2989123;39;20051;-86
2021/04/09 05:25:12;;;;;;;12.27;4.50;;;;;;;3.66;47.48;95708.53;2997523;39;20035;-87
2021/04/09 05:27:14;;;;;;;9.75;5.00;;;;;;;3.63;47.65;95709.53;2993733;39;20053;-86
2021/04/09 05:29:15;;;;;;;10.88;4.75;;;;;;;3.64;47.75;95715.56;2995754;39;20047;-86
2021/04/09 05:31:16;;;;;;;11.23;6.90;;;;;;;3.28;48.86;95716.81;2985539;39;20060;-87
2021/04/09 05:33:18;;;;;;;22.17;7.80;;;;;;;3.24;49.40;95728.25;2991823;39;20030;-86
2021/04/09 05:35:22;;;;;;;13.82;6.82;;;;;;;3.24;49.51;95729.09;2984555;39;20043;-86
2021/04/09 05:37:23;;;;;;;14.55;7.40;;;;;;;2.98;49.93;95724.59;2982628;39;20036;-85
2021/04/09 05:39:25;;;;;;;15.90;8.57;;;;;;;3.05;50.64;95731.06;2979512;40;20109;-86
2021/04/09 05:41:26;;;;;;;21.02;7.70;;;;;;;3.08;49.98;95742.09;2981016;39;20117;-86
2021/04/09 05:43:27;;;;;;;13.93;6.90;;;;;;;2.78;50.57;95744.69;2979304;40;20032;-87
2021/04/09 05:45:28;;;;;;;12.90;6.93;;;;;;;2.86;50.38;95742.50;2989535;39;20068;-85
2021/04/09 05:47:30;;;;;;;11.85;7.47;;;;;;;2.83;50.33;95744.41;2983956;39;20144;-87
2021/04/09 05:49:32;;;;;;;13.65;8.07;;;;;;;2.73;50.78;95751.00;2984734;39;20067;-85
2021/04/09 05:51:37;;;;;;;14.45;7.32;;;;;;;2.59;51.18;95750.03;2988254;39;20372;-86
2021/04/09 05:53:39;;;;;;;14.75;7.95;;;;;;;2.55;51.84;95752.88;2979615;39;20050;-86
2021/04/09 05:55:41;;;;;;;15.75;7.43;;;;;;;2.84;51.17;95759.03;2978772;40;20066;-88
2021/04/09 05:57:46;;;;;;;14.73;7.80;;;;;;;3.19;50.01;95748.44;2979258;39;20202;-86
2021/04/09 05:59:47;;;;;;;12.38;6.30;;;;;;;3.37;49.54;95751.69;2988031;39;20092;-88
2021/04/09 06:01:48;;;;;;;13.30;7.03;;;;;;;3.35;49.54;95745.78;2979860;40;20441;-84
2021/04/09 06:03:50;;;;;;;12.73;6.43;;;;;;;3.29;49.56;95752.13;2989961;39;20024;-85
2021/04/09 06:05:52;;;;;;;12.73;6.63;;;;;;;3.54;49.08;95746.34;2990907;39;20051;-86
2021/04/09 06:07:53;;;;;;;12.40;7.05;;;;;;;3.57;48.90;95753.13;2979644;39;20434;-86
2021/04/09 06:09:54;;;;;;;13.02;6.80;;;;;;;3.67;49.04;95749.06;2983432;39;20435;-85
2021/04/09 06:11:58;;;;;;;9.77;5.47;;;;;;;3.68;48.69;95755.94;2991309;39;20059;-88
2021/04/09 06:13:59;;;;;;;9.02;4.22;;;;;;;3.86;48.49;95759.16;2979385;39;20042;-84
2021/04/09 06:16:00;;;;;;;11.60;4.53;;;;;;;3.73;48.61;95750.47;2987992;39;20066;-86
2021/04/09 06:18:02;;;;;;;9.98;4.32;;;;;;;3.72;48.85;95749.59;2988416;39;20048;-85
2021/04/09 06:20:05;;;;;;;7.00;3.88;;;;;;;3.86;48.47;95752.22;2978836;39;20065;-85
2021/04/09 06:22:06;;;;;;;9.60;4.07;;;;;;;3.88;48.39;95760.75;2979360;40;20036;-87
2021/04/09 06:24:08;;;;;;;10.77;4.30;;;;;;;4.02;48.21;95759.06;2990078;39;20028;-86
2021/04/09 06:26:10;;;;;;;5.90;4.07;;;;;;;4.13;47.84;95755.81;2991558;39;20091;-86
2021/04/09 06:28:11;;;;;;;5.90;4.18;;;;;;;3.68;48.98;95755.94;2991315;39;20064;-85
2021/04/09 06:30:13;;;;;;;11.85;4.18;;;;;;;3.43;49.79;95762.53;2975184;39;20068;-87
2021/04/09 06:32:14;;;;;;;5.15;3.78;;;;;;;3.52;49.79;95763.75;2989228;39;20043;-86
2021/04/09 06:34:16;;;;;;;7.55;4.53;;;;;;;3.47;49.77;95763.19;2998809;39;20043;-86
2021/04/09 06:36:17;;;;;;;8.57;4.53;;;;;;;3.20;50.85;95766.44;2990722;39;20127;-86
2021/04/09 06:38:19;;;;;;;6.95;4.18;;;;;;;3.12;51.30;95768.66;2989012;39;20405;-86
2021/04/09 06:40:22;;;;;;;7.40;4.75;;;;;;;3.14;50.70;95771.13;2979013;39;20060;-86
2021/04/09 06:42:23;;;;;;;9.60;5.10;;;;;;;3.16;51.22;95777.06;2978834;39;20116;-86
2021/04/09 06:44:24;;;;;;;8.40;5.15;;;;;;;3.52;50.62;95771.53;2980302;39;20032;-89
2021/04/09 06:46:33;;;;;;;13.73;4.82;;;;;;;3.47;49.96;95779.56;2979683;39;20040;-85
2021/04/09 06:48:35;;;;;;;7.45;4.80;;;;;;;3.45;50.40;95776.22;2988533;39;20427;-84
2021/04/09 06:50:36;;;;;;;7.65;4.10;;;;;;;3.08;50.34;95783.53;2979327;40;20049;-87
2021/04/09 06:52:38;;;;;;;12.15;5.75;;;;;;;3.25;51.60;95774.81;2988565;39;20040;-86
2021/04/09 06:54:43;;;;;;;11.57;5.07;;;;;;;3.53;50.87;95780.97;2978610;39;20097;-85
2021/04/09 06:56:46;;;;;;;10.00;4.63;;;;;;;3.52;50.37;95781.06;2987408;39;20047;-86
2021/04/09 06:58:48;;;;;;;7.93;4.97;;;;;;;3.71;50.54;95778.22;2979111;40;20133;-86
2021/04/09 07:00:53;;;;;;;6.53;4.45;;;;;;;4.07;49.63;95780.38;2988344;39;20059;-86
2021/04/09 07:02:54;;;;;;;10.40;4.50;;;;;;;4.33;49.13;95775.38;2986454;39;20147;-86
2021/04/09 07:04:56;;;;;;;8.68;5.10;;;;;;;4.38;48.35;95779.31;2980251;39;20128;-85
2021/04/09 07:06:57;;;;;;;7.75;4.35;;;;;;;4.66;47.52;95782.81;2988465;39;20039;-86
2021/04/09 07:09:00;;;;;;;7.57;4.60;;;;;;;4.76;47.26;95788.25;2978509;40;20124;-86
2021/04/09 07:11:01;;;;;;;10.18;4.30;;;;;;;4.58;47.16;95785.03;2988006;39;20042;-86
2021/04/09 07:13:07;;;;;;;8.82;4.05;;;;;;;4.71;45.65;95783.34;2978217;40;20436;-85
2021/04/09 07:15:09;;;;;;;11.48;4.97;;;;;;;4.72;46.23;95785.84;2978985;39;20128;-85
2021/04/09 07:17:11;;;;;;;9.65;4.93;;;;;;;4.61;46.18;95784.88;2983224;39;20056;-84
2021/04/09 07:19:33;;;;;;;10.32;4.57;;;;;;;4.75;46.21;95789.19;2988369;39;20718;-87
2021/04/09 07:21:38;;;;;;;;;;;;;;;4.93;45.82;95785.44;2988809;39;20077;-89
2021/04/09 07:23:39;;;;;;;7.90;4.20;;;;;;;5.05;44.96;95786.38;2986284;39;19961;-85
2021/04/09 07:25:45;;;;;;;9.52;5.28;;;;;;;4.98;44.44;95793.75;2983039;40;20063;-88
2021/04/09 07:27:48;;;;;;;7.60;4.00;;;;;;;5.16;43.82;95788.28;2983462;39;20032;-87
2021/04/09 07:29:49;;;;;;;6.13;3.97;;;;;;;5.44;43.79;95782.13;2980898;39;20681;-84
2021/04/09 07:31:52;;;;;;;10.10;5.57;;;;;;;5.36;44.19;95780.06;2991473;39;20042;-85
2021/04/09 07:33:54;;;;;;;14.85;8.18;;;;;;;4.69;44.92;95790.41;2994444;39;20055;-89
2021/04/09 07:35:59;;;;;;;8.45;5.28;;;;;;;4.02;46.82;95793.63;2991759;39;20023;-87
2021/04/09 07:38:00;;;;;;;8.18;5.32;;;;;;;4.40;46.62;95797.41;2979535;39;20118;-85
2021/04/09 07:40:05;;;;;;;6.28;3.00;;;;;;;4.87;43.79;95789.22;2970196;40;20289;-87
2021/04/09 07:42:10;;;;;;;5.85;3.30;;;;;;;4.91;42.43;95793.31;2983311;39;20052;-85
2021/04/09 07:44:16;;;;;;;11.70;5.63;;;;;;;4.92;42.48;95792.34;2987952;39;20043;-86
2021/04/09 07:46:27;;;;;;;4.47;3.05;;;;;;;5.03;41.38;95796.03;2975922;39;20074;-72
2021/04/09 07:48:36;;;;;;;5.28;3.08;;;;;;;5.41;40.06;95792.75;2968503;39;20063;-72
2021/04/09 07:50:45;;;;;;;6.93;3.28;;;;;;;5.42;40.32;95797.00;2983557;39;20052;-72
2021/04/09 07:52:51;;;;;;;7.00;3.60;;;;;;;5.46;39.71;95796.72;2979541;39;20088;-73
2021/04/09 07:54:53;;;;;;;3.90;2.53;;;;;;;5.72;37.72;95799.31;2982842;39;20109;-73
2021/04/09 07:56:54;;;;;;;4.88;3.28;;;;;;;5.81;37.83;95795.28;2984145;39;20408;-72
2021/04/09 07:58:56;;;;;;;7.82;3.08;;;;;;;5.81;37.11;95792.66;2987716;39;20059;-72
2021/04/09 08:00:58;;;;;;;5.53;2.45;;;;;;;5.71;37.04;95795.06;2985984;39;20301;-72
2021/04/09 08:02:59;;;;;;;4.75;2.70;;;;;;;5.83;37.63;95788.19;2987681;39;20083;-72
2021/04/09 08:05:01;;;;;;;5.30;2.83;;;;;;;6.01;37.43;95779.19;2986290;39;20059;-71
2021/04/09 08:07:33;;;;;;;4.78;2.75;;;;;;;5.91;37.32;95785.94;2984165;39;20063;-72
2021/04/09 08:09:50;;;;;;;5.45;2.55;;;;;;;5.74;36.72;95785.31;2975040;39;20058;-74
2021/04/09 08:11:53;;;;;;;7.38;2.92;;;;;;;5.72;38.17;95787.19;2982275;39;20050;-71
2021/04/09 08:14:14;;;;;;;5.15;3.10;;;;;;;5.77;37.71;95792.06;2983865;39;20059;-73
2021/04/09 08:16:41;;;;;;;5.35;2.78;;;;;;;5.75;37.64;95796.53;2984312;39;20078;-70
2021/04/09 08:18:43;;;;;;;4.72;2.97;;;;;;;5.81;37.76;95790.06;2986078;39;20059;-71
2021/04/09 08:20:46;;;;;;;4.55;2.60;;;;;;;6.04;37.17;95781.56;2985389;39;20424;-72
2021/04/09 08:22:48;;;;;;;7.53;2.88;;;;;;;6.38;37.00;95783.63;2981889;39;20409;-86
2021/04/09 08:24:49;;;;;;;7.00;2.85;;;;;;;6.42;36.62;95785.09;2971195;40;20421;-85
2021/04/09 08:26:52;;;;;;;5.35;2.67;;;;;;;6.74;35.49;95788.88;2976457;39;20605;-86
2021/04/09 08:28:55;;;;;;;6.63;3.33;;;;;;;6.83;34.29;95789.16;2980628;39;20051;-87
2021/04/09 08:30:57;;;;;;;3.60;2.43;;;;;;;6.84;33.19;95783.84;2986597;39;20270;-72
2021/04/09 08:33:07;;;;;;;6.60;2.70;;;;;;;6.90;33.97;95782.56;2974426;39;20048;-72
2021/04/09 08:35:09;;;;;;;6.05;2.67;;;;;;;6.90;34.20;95777.34;2974901;39;20059;-71
2021/04/09 08:37:11;;;;;;;8.40;3.22;;;;;;;6.85;34.40;95784.69;2984854;39;20062;-73
2021/04/09 08:39:18;;;;;;;5.20;3.28;;;;;;;6.36;34.94;95784.56;2974847;39;20048;-74
2021/04/09 08:41:20;;;;;;;3.92;2.60;;;;;;;6.43;34.33;95782.41;2977156;39;20083;-74
2021/04/09 08:43:21;;;;;;;5.45;2.67;;;;;;;6.54;34.23;95779.88;2984932;39;20064;-73
2021/04/09 08:45:22;;;;;;;6.85;2.95;;;;;;;6.77;34.41;95782.59;2977364;39;20412;-86
2021/04/09 08:47:23;;;;;;;3.55;2.58;;;;;;;6.87;34.48;95778.41;2989446;39;20044;-86
2021/04/09 08:49:26;;;;;;;5.20;2.83;;;;;;;6.53;34.87;95783.38;2979656;40;20069;-86
2021/04/09 08:51:28;;;;;;;3.72;2.42;;;;;;;6.25;35.90;95783.66;2977620;39;20058;-86
2021/04/09 08:53:30;;;;;;;4.80;2.33;;;;;;;6.32;35.52;95780.53;2981671;39;20077;-87
2021/04/09 08:55:36;;;;;;;3.83;2.60;;;;;;;6.40;35.70;95787.81;2993107;39;20027;-86
2021/04/09 08:57:42;;;;;;;6.07;2.90;;;;;;;6.61;34.99;95793.28;2981038;39;20055;-86
2021/04/09 08:59:45;;;;;;;4.20;2.35;;;;;;;6.73;34.92;95795.03;2988318;39;20043;-86
2021/04/09 09:02:15;;;;;;;4.97;3.30;;;;;;;6.28;34.63;95792.09;2989975;39;20421;-86
2021/04/09 09:04:23;;;;;;;4.60;2.65;;;;;;;6.73;34.46;95794.16;2996793;39;20416;-86
2021/04/09 09:06:40;;;;;;;6.55;2.60;;;;;;;7.17;34.13;95790.16;2990242;39;20042;-86
2021/04/09 09:08:41;;;;;;;5.03;2.70;;;;;;;7.53;33.24;95789.25;2979796;40;20064;-86
2021/04/09 09:10:43;;;;;;;5.03;3.10;;;;;;;7.82;33.13;95790.63;2983530;39;20100;-85
2021/04/09 09:13:02;;;;;;;3.92;2.50;;;;;;;8.08;31.84;95791.25;2979065;40;20076;-88
2021/04/09 09:15:04;;;;;;;3.33;2.45;;;;;;;7.37;32.96;95792.13;2987965;39;20416;-86
2021/04/09 09:17:20;;;;;;;5.05;2.53;;;;;;;7.34;32.74;95784.56;2987867;39;20055;-86
2021/04/09 09:19:38;;;;;;;4.22;3.25;;;;;;;6.80;34.53;95789.34;2987690;39;20092;-85
2021/04/09 09:21:40;;;;;;;6.68;3.05;;;;;;;6.73;33.93;95781.16;2987659;39;20040;-88
2021/04/09 09:23:53;;;;;;;6.80;2.70;;;;;;;6.94;33.13;95797.84;2978102;39;20417;-85
2021/04/09 09:26:33;;;;;;;5.03;2.95;;;;;;;6.01;34.10;95780.97;2990841;39;20054;-86
2021/04/09 09:28:34;;;;;;;3.92;2.17;;;;;;;6.14;33.93;95780.03;2996675;39;20453;-88
2021/04/09 09:30:40;;;;;;;5.80;2.40;;;;;;;6.37;34.44;95777.63;2988534;39;20373;-85
2021/04/09 09:32:41;;;;;;;5.25;2.78;;;;;;;6.63;33.62;95780.16;2987868;39;20448;-86
2021/04/09 09:34:45;;;;;;;7.32;2.58;;;;;;;6.78;34.50;95776.47;2990384;39;20099;-87
2021/04/09 09:37:00;;;;;;;5.03;2.97;;;;;;;6.98;34.13;95775.03;2994319;39;20031;-85
2021/04/09 09:39:02;;;;;;;7.53;2.42;;;;;;;7.35;33.58;95767.13;2991831;39;20392;-90
2021/04/09 09:41:03;;;;;;;4.53;2.20;;;;;;;7.75;32.54;95765.00;2981243;39;20047;-85
2021/04/09 09:43:05;;;;;;;6.18;2.95;;;;;;;7.88;31.79;95767.50;2980326;40;20051;-87
2021/04/09 09:45:12;;;;;;;4.45;2.90;;;;;;;7.96;32.29;95770.38;2987979;39;20047;-85
2021/04/09 09:47:13;;;;;;;5.20;3.10;;;;;;;7.18;32.18;95760.53;2988085;39;20059;-86